Time;durP1;ratioP1;P1;durP2;ratioP2;P2;SDS_P1;SDS_P2;PMS_P1;PMS_P2;Temp;Humidity;BMP_temperature;BMP_pressure;BME280_temperature;BME280_humidity;BME280_pressure;Samples;Min_cycle;Max_cycle;Signal;HPM_P1;HPM_P2
2021/03/11 00:00:17;;;;;;;;;;;;;;;-144.01;100.00;62166.59;5036700;28;19921;-53
2021/03/11 00:02:44;;;;;;;;;;;;;;;-144.01;100.00;62166.59;5036581;28;19913;-52
2021/03/11 00:05:12;;;;;;;;;;;;;;;-144.01;100.00;62166.59;5036834;28;19913;-52
2021/03/11 00:07:40;;;;;;;;;;;;;;;-144.01;100.00;62166.59;5036538;28;19912;-53
2021/03/11 00:10:10;;;;;;;;;;;;;;;-144.01;100.00;62166.59;5036195;28;19917;-52
2021/03/11 00:12:37;;;;;;;;;;;;;;;-144.01;100.00;62166.59;5036022;28;19916;-51
2021/03/11 00:15:06;;;;;;;;;;;;;;;-144.01;100.00;62166.59;5037016;28;19913;-56
2021/03/11 00:17:33;;;;;;;;;;;;;;;-144.01;100.00;62166.59;5036771;28;19917;-56
2021/03/11 00:20:00;;;;;;;;;;;;;;;-144.01;100.00;62166.59;5035768;28;20579;-53
2021/03/11 00:22:27;;;;;;;;;;;;;;;-144.01;100.00;62166.59;5036366;28;19924;-54
2021/03/11 00:24:54;;;;;;;;;;;;;;;-144.01;100.00;62166.59;5036764;28;19924;-52
2021/03/11 00:27:21;;;;;;;;;;;;;;;-144.01;100.00;62166.59;5036534;28;20235;-54
2021/03/11 00:29:48;;;;;;;;;;;;;;;-144.01;100.00;62166.59;5036604;28;19916;-54
2021/03/11 00:32:15;;;;;;;;;;;;;;;-144.01;100.00;62166.59;5036471;28;19920;-53
2021/03/11 00:34:41;;;;;;;;;;;;;;;-144.01;100.00;62166.59;5035534;28;19913;-53
2021/03/11 00:37:08;;;;;;;;;;;;;;;-144.01;100.00;62166.59;5036402;28;19943;-55
2021/03/11 00:39:35;;;;;;;;;;;;;;;-144.01;100.00;62166.59;5027145;28;19920;-54
2021/03/11 00:42:02;;;;;;;;;;;;;;;-144.01;100.00;62166.59;5016642;28;19925;-52
2021/03/11 00:44:29;;;;;;;;;;;;;;;-144.01;100.00;62166.59;5034365;28;19913;-53
2021/03/11 00:46:56;;;;;;;;;;;;;;;-144.01;100.00;62166.59;5036569;28;19928;-54
2021/03/11 00:49:24;;;;;;;;;;;;;;;-144.01;100.00;62166.59;5051908;28;19942;-52
2021/03/11 00:51:51;;;;;;;;;;;;;;;-144.01;100.00;62166.59;5036282;28;20208;-52
2021/03/11 00:54:18;;;;;;;;;;;;;;;-144.01;100.00;62166.59;5035997;28;20330;-55
2021/03/11 00:56:45;;;;;;;;;;;;;;;-144.01;100.00;62166.59;5051474;28;19913;-54
2021/03/11 00:59:12;;;;;;;;;;;;;;;-144.01;100.00;62166.59;5051884;28;19917;-52
2021/03/11 01:01:39;;;;;;;;;;;;;;;-144.01;100.00;62166.59;5051480;28;19947;-57
2021/03/11 01:04:10;;;;;;;;;;;;;;;-144.01;100.00;62166.59;5051585;28;19920;-54
2021/03/11 01:06:37;;;;;;;;;;;;;;;-144.01;100.00;62166.59;5035933;28;19917;-54
2021/03/11 01:09:05;;;;;;;;;;;;;;;-144.01;100.00;62166.59;5034841;28;19913;-52
2021/03/11 01:11:32;;;;;;;;;;;;;;;-144.01;100.00;62166.59;5035936;28;19917;-51
2021/03/11 01:14:02;;;;;;;;;;;;;;;-144.01;100.00;62166.59;5036060;28;19912;-51
2021/03/11 01:16:29;;;;;;;;;;;;;;;-144.01;100.00;62166.59;5034900;28;20204;-54
2021/03/11 01:18:56;;;;;;;;;;;;;;;-144.01;100.00;62166.59;5029128;28;19913;-54
2021/03/11 01:21:23;;;;;;;;;;;;;;;-144.01;100.00;62166.59;5016138;28;19918;-54
2021/03/11 01:23:50;;;;;;;;;;;;;;;-144.01;100.00;62166.59;5019085;28;19924;-52
2021/03/11 01:26:17;;;;;;;;;;;;;;;-144.01;100.00;62166.59;5024934;28;20295;-53
2021/03/11 01:28:44;;;;;;;;;;;;;;;-144.01;100.00;62166.59;5039853;28;20347;-51
2021/03/11 01:31:11;;;;;;;;;;;;;;;-144.01;100.00;62166.59;5039973;28;19912;-52
2021/03/11 01:33:38;;;;;;;;;;;;;;;-144.01;100.00;62166.59;5040006;28;19920;-53
2021/03/11 01:36:05;;;;;;;;;;;;;;;-144.01;100.00;62166.59;5039666;28;19913;-53
2021/03/11 01:38:32;;;;;;;;;;;;;;;-144.01;100.00;62166.59;5039510;28;19917;-52
2021/03/11 01:40:59;;;;;;;;;;;;;;;-144.01;100.00;62166.59;5039759;28;19921;-53
2021/03/11 01:43:25;;;;;;;;;;;;;;;-144.01;100.00;62166.59;5039790;28;19913;-52
2021/03/11 01:45:52;;;;;;;;;;;;;;;-144.01;100.00;62166.59;5039514;28;19920;-53
2021/03/11 01:48:19;;;;;;;;;;;;;;;-144.01;100.00;62166.59;5039507;28;19920;-54
2021/03/11 01:50:46;;;;;;;;;;;;;;;-144.01;100.00;62166.59;5039511;28;19920;-54
2021/03/11 01:53:13;;;;;;;;;;;;;;;-144.01;100.00;62166.59;5039594;28;19917;-52
2021/03/11 01:55:40;;;;;;;;;;;;;;;-144.01;100.00;62166.59;5055134;28;19928;-54
2021/03/11 01:58:07;;;;;;;;;;;;;;;-144.01;100.00;62166.59;5038989;28;19924;-52
2021/03/11 02:00:34;;;;;;;;;;;;;;;-144.01;100.00;62166.59;5054787;28;19917;-53
2021/03/11 02:03:01;;;;;;;;;;;;;;;-144.01;100.00;62166.59;5039472;28;19920;-54
2021/03/11 02:05:28;;;;;;;;;;;;;;;-144.01;100.00;62166.59;5054926;28;19920;-52
2021/03/11 02:07:55;;;;;;;;;;;;;;;-144.01;100.00;62166.59;5054313;28;19913;-53
2021/03/11 02:10:23;;;;;;;;;;;;;;;-144.01;100.00;62166.59;5038911;28;20327;-55
2021/03/11 02:12:50;;;;;;;;;;;;;;;-144.01;100.00;62166.59;5038193;28;20239;-53
2021/03/11 02:15:17;;;;;;;;;;;;;;;-144.01;100.00;62166.59;5039200;28;20224;-53
2021/03/11 02:17:50;;;;;;;;;;;;;;;-144.01;100.00;62166.59;5038823;28;19921;-53
2021/03/11 02:20:22;;;;;;;;;;;;;;;-144.01;100.00;62166.59;5038986;28;19913;-53
2021/03/11 02:23:12;;;;;;;;;;;;;;;-144.01;100.00;62166.59;5039272;28;19925;-53
2021/03/11 02:26:12;;;;;;;;;;;;;;;-144.01;100.00;62166.59;5054639;28;20223;-54
2021/03/11 02:28:57;;;;;;;;;;;;;;;-144.01;100.00;62166.59;5037557;28;19920;-52
2021/03/11 02:31:24;;;;;;;;;;;;;;;-144.01;100.00;62166.59;5038904;28;20223;-50
2021/03/11 02:33:52;;;;;;;;;;;;;;;-144.01;100.00;62166.59;5054260;28;19913;-53
2021/03/11 02:36:19;;;;;;;;;;;;;;;-144.01;100.00;62166.59;5053579;28;19928;-53
2021/03/11 02:38:46;;;;;;;;;;;;;;;-144.01;100.00;62166.59;5035370;28;20376;-53
2021/03/11 02:41:14;;;;;;;;;;;;;;;-144.01;100.00;62166.59;5050904;28;19918;-54
2021/03/11 02:43:41;;;;;;;;;;;;;;;-144.01;100.00;62166.59;5050868;28;20201;-54
2021/03/11 02:46:08;;;;;;;;;;;;;;;-144.01;100.00;62166.59;5051962;28;19917;-51
2021/03/11 02:48:35;;;;;;;;;;;;;;;-144.01;100.00;62166.59;5053924;28;19924;-54
2021/03/11 02:51:17;;;;;;;;;;;;;;;-144.01;100.00;62166.59;5052107;28;19988;-52
2021/03/11 02:53:44;;;;;;;;;;;;;;;-144.01;100.00;62166.59;5054154;28;19917;-52
2021/03/11 02:56:11;;;;;;;;;;;;;;;-144.01;100.00;62166.59;5053648;28;19913;-52
2021/03/11 02:58:39;;;;;;;;;;;;;;;-144.01;100.00;62166.59;5053881;28;20250;-56
2021/03/11 03:01:09;;;;;;;;;;;;;;;-144.01;100.00;62166.59;5038269;28;20303;-54
2021/03/11 03:03:36;;;;;;;;;;;;;;;-144.01;100.00;62166.59;5038408;28;19917;-55
2021/03/11 03:06:03;;;;;;;;;;;;;;;-144.01;100.00;62166.59;5053692;28;19916;-51
2021/03/11 03:08:30;;;;;;;;;;;;;;;-144.01;100.00;62166.59;5023061;28;19917;-52
2021/03/11 03:10:57;;;;;;;;;;;;;;;-144.01;100.00;62166.59;5038070;28;19924;-52
2021/03/11 03:13:24;;;;;;;;;;;;;;;-144.01;100.00;62166.59;5037261;28;19920;-52
2021/03/11 03:15:51;;;;;;;;;;;;;;;-144.01;100.00;62166.59;5037131;28;19917;-54
2021/03/11 03:18:18;;;;;;;;;;;;;;;-144.01;100.00;62166.59;5036466;28;19913;-56
2021/03/11 03:20:45;;;;;;;;;;;;;;;-144.01;100.00;62166.59;5053426;28;19913;-55
2021/03/11 03:23:12;;;;;;;;;;;;;;;-144.01;100.00;62166.59;5053535;28;20295;-52
2021/03/11 03:25:39;;;;;;;;;;;;;;;-144.01;100.00;62166.59;5037948;28;19913;-54
2021/03/11 03:28:06;;;;;;;;;;;;;;;-144.01;100.00;62166.59;5036554;28;19920;-52
2021/03/11 03:30:33;;;;;;;;;;;;;;;-144.01;100.00;62166.59;5037679;28;19913;-54
2021/03/11 03:33:00;;;;;;;;;;;;;;;-144.01;100.00;62166.59;5037793;28;19913;-54
2021/03/11 03:35:27;;;;;;;;;;;;;;;-144.01;100.00;62166.59;5037819;28;19913;-54
2021/03/11 03:37:53;;;;;;;;;;;;;;;-144.01;100.00;62166.59;5037066;28;19913;-54
2021/03/11 03:40:21;;;;;;;;;;;;;;;-144.01;100.00;62166.59;5037415;28;19913;-54
2021/03/11 03:42:51;;;;;;;;;;;;;;;-144.01;100.00;62166.59;5017944;28;19922;-52
2021/03/11 03:45:24;;;;;;;;;;;;;;;-144.01;100.00;62166.59;5016700;28;19917;-53
2021/03/11 03:47:51;;;;;;;;;;;;;;;-144.01;100.00;62166.59;5017410;28;19913;-52
2021/03/11 03:50:18;;;;;;;;;;;;;;;-144.01;100.00;62166.59;5037265;28;19913;-52
2021/03/11 03:52:45;;;;;;;;;;;;;;;-144.01;100.00;62166.59;5036211;28;19917;-56
2021/03/11 03:55:12;;;;;;;;;;;;;;;-144.01;100.00;62166.59;5052693;28;19913;-53
2021/03/11 03:57:41;;;;;;;;;;;;;;;-144.01;100.00;62166.59;5052764;28;19913;-54
2021/03/11 04:00:08;;;;;;;;;;;;;;;-144.01;100.00;62166.59;5052600;28;19917;-53
2021/03/11 04:02:35;;;;;;;;;;;;;;;-144.01;100.00;62166.59;5052416;28;19920;-52
2021/03/11 04:05:02;;;;;;;;;;;;;;;-144.01;100.00;62166.59;5039562;28;19913;-52
2021/03/11 04:07:30;;;;;;;;;;;;;;;-144.01;100.00;62166.59;5016112;28;19920;-54
2021/03/11 04:09:57;;;;;;;;;;;;;;;-144.01;100.00;62166.59;5032833;28;19917;-51
2021/03/11 04:12:24;;;;;;;;;;;;;;;-144.01;100.00;62166.59;5036366;28;20316;-52
2021/03/11 04:14:51;;;;;;;;;;;;;;;-144.01;100.00;62166.59;5032575;28;19925;-53
2021/03/11 04:17:18;;;;;;;;;;;;;;;-144.01;100.00;62166.59;5015612;28;20107;-53
2021/03/11 04:19:45;;;;;;;;;;;;;;;-144.01;100.00;62166.59;5015840;28;20339;-53
2021/03/11 04:22:11;;;;;;;;;;;;;;;-144.01;100.00;62166.59;5017856;28;19924;-51
2021/03/11 04:24:38;;;;;;;;;;;;;;;-144.01;100.00;62166.59;5049933;28;19921;-53
2021/03/11 04:27:06;;;;;;;;;;;;;;;-144.01;100.00;62166.59;5016568;28;20201;-53
2021/03/11 04:29:33;;;;;;;;;;;;;;;-144.01;100.00;62166.59;5015544;28;19921;-52
2021/03/11 04:32:00;;;;;;;;;;;;;;;-144.01;100.00;62166.59;5016247;28;19921;-55
2021/03/11 04:34:27;;;;;;;;;;;;;;;-144.01;100.00;62166.59;5018016;28;20197;-55
2021/03/11 04:36:55;;;;;;;;;;;;;;;-144.01;100.00;62166.59;5016370;28;19913;-53
2021/03/11 04:39:22;;;;;;;;;;;;;;;-144.01;100.00;62166.59;5016263;28;20350;-53
2021/03/11 04:41:52;;;;;;;;;;;;;;;-144.01;100.00;62166.59;5015343;28;20239;-54
2021/03/11 04:44:20;;;;;;;;;;;;;;;-144.01;100.00;62166.59;5034457;28;19917;-54
2021/03/11 04:46:47;;;;;;;;;;;;;;;-144.01;100.00;62166.59;5036073;28;19917;-51
2021/03/11 04:49:13;;;;;;;;;;;;;;;-144.01;100.00;62166.59;5036094;28;19920;-54
2021/03/11 04:51:40;;;;;;;;;;;;;;;-144.01;100.00;62166.59;5035002;28;19920;-52
2021/03/11 04:54:07;;;;;;;;;;;;;;;-144.01;100.00;62166.59;5034740;28;19924;-52
2021/03/11 04:56:34;;;;;;;;;;;;;;;-144.01;100.00;62166.59;5037664;28;19916;-54
2021/03/11 04:59:01;;;;;;;;;;;;;;;-144.01;100.00;62166.59;5048578;28;20236;-54
2021/03/11 05:01:29;;;;;;;;;;;;;;;-144.01;100.00;62166.59;5050780;28;19924;-52
2021/03/11 05:03:56;;;;;;;;;;;;;;;-144.01;100.00;62166.59;5053385;28;19919;-58
2021/03/11 05:06:22;;;;;;;;;;;;;;;-144.01;100.00;62166.59;5019769;28;19913;-53
2021/03/11 05:08:50;;;;;;;;;;;;;;;-144.01;100.00;62166.59;5034377;28;19921;-44
2021/03/11 05:11:17;;;;;;;;;;;;;;;-144.01;100.00;62166.59;5016241;28;19918;-48
2021/03/11 05:13:44;;;;;;;;;;;;;;;-144.01;100.00;62166.59;5028638;28;19913;-49
2021/03/11 05:16:11;;;;;;;;;;;;;;;-144.01;100.00;62166.59;5036053;28;20227;-48
2021/03/11 05:18:38;;;;;;;;;;;;;;;-144.01;100.00;62166.59;5035898;28;19913;-47
2021/03/11 05:21:05;;;;;;;;;;;;;;;-144.01;100.00;62166.59;5036071;28;19917;-49
2021/03/11 05:23:32;;;;;;;;;;;;;;;-144.01;100.00;62166.59;5034936;28;19924;-47
2021/03/11 05:25:58;;;;;;;;;;;;;;;-144.01;100.00;62166.59;5036054;28;19921;-47
2021/03/11 05:28:25;;;;;;;;;;;;;;;-144.01;100.00;62166.59;5035864;28;20272;-50
2021/03/11 05:30:52;;;;;;;;;;;;;;;-144.01;100.00;62166.59;5036012;28;19920;-49
2021/03/11 05:33:19;;;;;;;;;;;;;;;-144.01;100.00;62166.59;5035536;28;19944;-47
2021/03/11 05:35:46;;;;;;;;;;;;;;;-144.01;100.00;62166.59;5035905;28;19913;-51
2021/03/11 05:38:13;;;;;;;;;;;;;;;-144.01;100.00;62166.59;5029064;28;19921;-48
2021/03/11 05:40:40;;;;;;;;;;;;;;;-144.01;100.00;62166.59;5016154;28;19913;-51
2021/03/11 05:43:08;;;;;;;;;;;;;;;-144.01;100.00;62166.59;5026621;28;19924;-51
2021/03/11 05:45:34;;;;;;;;;;;;;;;-144.01;100.00;62166.59;5022532;28;19917;-50
2021/03/11 05:48:01;;;;;;;;;;;;;;;-144.01;100.00;62166.59;5015845;28;19917;-49
2021/03/11 05:50:29;;;;;;;;;;;;;;;-144.01;100.00;62166.59;5016172;28;19914;-49
2021/03/11 05:52:56;;;;;;;;;;;;;;;-144.01;100.00;62166.59;5021612;28;19917;-50
2021/03/11 05:55:24;;;;;;;;;;;;;;;-144.01;100.00;62166.59;5035695;28;19913;-49
2021/03/11 05:57:51;;;;;;;;;;;;;;;-144.01;100.00;62166.59;5046950;28;19943;-50
2021/03/11 06:00:19;;;;;;;;;;;;;;;-144.01;100.00;62166.59;5054497;28;19920;-49
2021/03/11 06:02:46;;;;;;;;;;;;;;;-144.01;100.00;62166.59;5055525;28;20322;-49
2021/03/11 06:05:16;;;;;;;;;;;;;;;-144.01;100.00;62166.59;5055536;28;19912;-48
2021/03/11 06:07:44;;;;;;;;;;;;;;;-144.01;100.00;62166.59;5055025;28;20339;-51
2021/03/11 06:10:11;;;;;;;;;;;;;;;-144.01;100.00;62166.59;5018365;28;19924;-50
2021/03/11 06:12:38;;;;;;;;;;;;;;;-144.01;100.00;62166.59;5019175;28;19921;-49
2021/03/11 06:15:10;;;;;;;;;;;;;;;-144.01;100.00;62166.59;5019130;28;20312;-50
2021/03/11 06:17:38;;;;;;;;;;;;;;;-144.01;100.00;62166.59;5019744;28;19920;-52
2021/03/11 06:20:05;;;;;;;;;;;;;;;-144.01;100.00;62166.59;5038825;28;20295;-49
2021/03/11 06:22:34;;;;;;;;;;;;;;;-144.01;100.00;62166.59;5038656;28;19917;-49
2021/03/11 06:25:01;;;;;;;;;;;;;;;-144.01;100.00;62166.59;5038778;28;19917;-51
2021/03/11 06:27:28;;;;;;;;;;;;;;;-144.01;100.00;62166.59;5022693;28;19944;-50
2021/03/11 06:29:57;;;;;;;;;;;;;;;-144.01;100.00;62166.59;5038670;28;20205;-50
2021/03/11 06:32:24;;;;;;;;;;;;;;;-144.01;100.00;62166.59;5038549;28;19913;-49
2021/03/11 06:34:51;;;;;;;;;;;;;;;-144.01;100.00;62166.59;5037572;28;19913;-50
2021/03/11 06:37:42;;;;;;;;;;;;;;;-144.01;100.00;62166.59;5022430;28;19913;-50
2021/03/11 06:40:16;;;;;;;;;;;;;;;-144.01;100.00;62166.59;5018335;28;19923;-49
2021/03/11 06:42:43;;;;;;;;;;;;;;;-144.01;100.00;62166.59;5018556;28;19917;-49
2021/03/11 06:45:19;;;;;;;;;;;;;;;-144.01;100.00;62166.59;5018630;28;19924;-48
2021/03/11 06:47:47;;;;;;;;;;;;;;;-144.01;100.00;62166.59;5019965;28;19921;-51
2021/03/11 06:50:14;;;;;;;;;;;;;;;-144.01;100.00;62166.59;5017820;28;20331;-50
2021/03/11 06:53:02;;;;;;;;;;;;;;;-144.01;100.00;62166.59;5018537;28;19917;-48
2021/03/11 06:55:29;;;;;;;;;;;;;;;-144.01;100.00;62166.59;5018104;28;19920;-49
2021/03/11 06:57:55;;;;;;;;;;;;;;;-144.01;100.00;62166.59;5020754;28;19921;-49
2021/03/11 07:00:23;;;;;;;;;;;;;;;-144.01;100.00;62166.59;5037929;28;19943;-49
2021/03/11 07:02:57;;;;;;;;;;;;;;;-144.01;100.00;62166.59;5038009;28;19927;-51
2021/03/11 07:05:25;;;;;;;;;;;;;;;-144.01;100.00;62166.59;5037953;28;19928;-54
2021/03/11 07:08:21;;;;;;;;;;;;;;;-144.01;100.00;62166.59;5037550;28;19913;-48
2021/03/11 07:10:48;;;;;;;;;;;;;;;-144.01;100.00;62166.59;5036924;28;19924;-50
2021/03/11 07:13:15;;;;;;;;;;;;;;;-144.01;100.00;62166.59;5038208;28;20251;-49
2021/03/11 07:15:42;;;;;;;;;;;;;;;-144.01;100.00;62166.59;5038113;28;19913;-51
2021/03/11 07:18:20;;;;;;;;;;;;;;;-144.01;100.00;62166.59;5037532;28;19917;-49
2021/03/11 07:20:46;;;;;;;;;;;;;;;-144.01;100.00;62166.59;5037972;28;19913;-49
2021/03/11 07:23:17;;;;;;;;;;;;;;;-144.01;100.00;62166.59;5037926;28;19928;-49
2021/03/11 07:25:45;;;;;;;;;;;;;;;-144.01;100.00;62166.59;5037970;28;20312;-49
2021/03/11 07:28:22;;;;;;;;;;;;;;;-144.01;100.00;62166.59;5037416;28;19913;-47
2021/03/11 07:30:51;;;;;;;;;;;;;;;-144.01;100.00;62166.59;5037840;28;19913;-50
2021/03/11 07:33:19;;;;;;;;;;;;;;;-144.01;100.00;62166.59;5037835;28;20358;-50
2021/03/11 07:35:46;;;;;;;;;;;;;;;-144.01;100.00;62166.59;5037834;28;19921;-49
2021/03/11 07:38:17;;;;;;;;;;;;;;;-144.01;100.00;62166.59;5036978;28;19924;-49
2021/03/11 07:40:47;;;;;;;;;;;;;;;-144.01;100.00;62166.59;5037628;28;19944;-49
2021/03/11 07:43:14;;;;;;;;;;;;;;;-144.01;100.00;62166.59;5037498;28;19917;-51
2021/03/11 07:45:41;;;;;;;;;;;;;;;-144.01;100.00;62166.59;5037547;28;19913;-53
2021/03/11 07:48:09;;;;;;;;;;;;;;;-144.01;100.00;62166.59;5035356;28;19921;-54
2021/03/11 07:50:36;;;;;;;;;;;;;;;-144.01;100.00;62166.59;5037302;28;19913;-52
2021/03/11 07:53:04;;;;;;;;;;;;;;;-144.01;100.00;62166.59;5037391;28;19924;-52
2021/03/11 07:55:31;;;;;;;;;;;;;;;-144.01;100.00;62166.59;5021576;28;19917;-49
2021/03/11 07:57:58;;;;;;;;;;;;;;;-144.01;100.00;62166.59;5018333;28;19917;-49
2021/03/11 08:00:26;;;;;;;;;;;;;;;-144.01;100.00;62166.59;5052369;28;19917;-50
2021/03/11 08:03:02;;;;;;;;;;;;;;;-144.01;100.00;62166.59;5052650;28;19917;-49
2021/03/11 08:05:38;;;;;;;;;;;;;;;-144.01;100.00;62166.59;5051491;28;20331;-50
2021/03/11 08:08:19;;;;;;;;;;;;;;;-144.01;100.00;62166.59;5051931;28;19913;-49
2021/03/11 08:10:46;;;;;;;;;;;;;;;-144.01;100.00;62166.59;5037015;28;19928;-51
2021/03/11 08:13:25;;;;;;;;;;;;;;;-144.01;100.00;62166.59;5037068;28;20621;-49
2021/03/11 08:15:53;;;;;;;;;;;;;;;-144.01;100.00;62166.59;5037018;28;19913;-49
2021/03/11 08:18:32;;;;;;;;;;;;;;;-144.01;100.00;62166.59;5036471;28;19913;-50
2021/03/11 08:20:59;;;;;;;;;;;;;;;-144.01;100.00;62166.59;5036845;28;19920;-51
2021/03/11 08:23:27;;;;;;;;;;;;;;;-144.01;100.00;62166.59;5052282;28;19928;-52
2021/03/11 08:25:54;;;;;;;;;;;;;;;-144.01;100.00;62166.59;5036761;28;19920;-51
2021/03/11 08:28:21;;;;;;;;;;;;;;;-144.01;100.00;62166.59;5032436;28;19913;-52
2021/03/11 08:30:47;;;;;;;;;;;;;;;-144.01;100.00;62166.59;5036838;28;19913;-49
2021/03/11 08:33:34;;;;;;;;;;;;;;;-144.01;100.00;62166.59;5036162;28;19913;-53
2021/03/11 08:36:02;;;;;;;;;;;;;;;-144.01;100.00;62166.59;5027707;28;19917;-52
2021/03/11 08:38:32;;;;;;;;;;;;;;;-144.01;100.00;62166.59;5020414;28;19913;-53
2021/03/11 08:41:04;;;;;;;;;;;;;;;-144.01;100.00;62166.59;5036554;28;19919;-49
2021/03/11 08:43:40;;;;;;;;;;;;;;;-144.01;100.00;62166.59;5036348;28;20224;-49
2021/03/11 08:46:08;;;;;;;;;;;;;;;-144.01;100.00;62166.59;5036333;28;19913;-50
2021/03/11 08:48:38;;;;;;;;;;;;;;;-144.01;100.00;62166.59;5036160;28;19924;-49
2021/03/11 08:51:06;;;;;;;;;;;;;;;-144.01;100.00;62166.59;5036377;28;19913;-49
2021/03/11 08:53:35;;;;;;;;;;;;;;;-144.01;100.00;62166.59;5036368;28;19917;-49
2021/03/11 08:56:18;;;;;;;;;;;;;;;-144.01;100.00;62166.59;5036190;28;20334;-53
2021/03/11 08:58:51;;;;;;;;;;;;;;;-144.01;100.00;62166.59;5036016;28;19917;-53
2021/03/11 09:01:32;;;;;;;;;;;;;;;-144.01;100.00;62166.59;5036282;28;19920;-53
2021/03/11 09:04:00;;;;;;;;;;;;;;;-144.01;100.00;62166.59;5036204;28;19924;-50
2021/03/11 09:06:45;;;;;;;;;;;;;;;-144.01;100.00;62166.59;5035995;28;20235;-49
2021/03/11 09:09:12;;;;;;;;;;;;;;;-144.01;100.00;62166.59;5035526;28;19916;-48
2021/03/11 09:11:39;;;;;;;;;;;;;;;-144.01;100.00;62166.59;5051504;28;19917;-49
2021/03/11 09:14:09;;;;;;;;;;;;;;;-144.01;100.00;62166.59;5036197;28;19979;-51
2021/03/11 09:16:36;;;;;;;;;;;;;;;-144.01;100.00;62166.59;5035889;28;19913;-49
2021/03/11 09:19:03;;;;;;;;;;;;;;;-144.01;100.00;62166.59;5028582;28;19913;-49
2021/03/11 09:21:36;;;;;;;;;;;;;;;-144.01;100.00;62166.59;5016257;28;20220;-49
2021/03/11 09:24:15;;;;;;;;;;;;;;;-144.01;100.00;62166.59;5016134;28;19951;-51
2021/03/11 09:26:42;;;;;;;;;;;;;;;-144.01;100.00;62166.59;5016031;28;20338;-48
2021/03/11 09:29:09;;;;;;;;;;;;;;;-144.01;100.00;62166.59;5024774;28;19920;-49
2021/03/11 09:31:37;;;;;;;;;;;;;;;-144.01;100.00;62166.59;5036024;28;19913;-49
2021/03/11 09:34:04;;;;;;;;;;;;;;;-144.01;100.00;62166.59;5035928;28;19913;-51
2021/03/11 09:36:31;;;;;;;;;;;;;;;-144.01;100.00;62166.59;5035713;28;19917;-49
2021/03/11 09:38:59;;;;;;;;;;;;;;;-144.01;100.00;62166.59;5035371;28;19920;-50
2021/03/11 09:41:27;;;;;;;;;;;;;;;-144.01;100.00;62166.59;5035844;28;19917;-49
2021/03/11 09:43:54;;;;;;;;;;;;;;;-144.01;100.00;62166.59;5036746;28;19947;-48
2021/03/11 09:46:22;;;;;;;;;;;;;;;-144.01;100.00;62166.59;5039659;28;19917;-52
2021/03/11 09:48:50;;;;;;;;;;;;;;;-144.01;100.00;62166.59;5039568;28;19920;-52
2021/03/11 09:51:27;;;;;;;;;;;;;;;-144.01;100.00;62166.59;5039699;28;19920;-49
2021/03/11 09:53:54;;;;;;;;;;;;;;;-144.01;100.00;62166.59;5039659;28;19917;-48
2021/03/11 09:56:25;;;;;;;;;;;;;;;-144.01;100.00;62166.59;5039377;28;19913;-51
2021/03/11 09:58:54;;;;;;;;;;;;;;;-144.01;100.00;62166.59;5039343;28;19916;-52
2021/03/11 10:01:24;;;;;;;;;;;;;;;-144.01;100.00;62166.59;5039575;28;19917;-48
2021/03/11 10:03:51;;;;;;;;;;;;;;;-144.01;100.00;62166.59;5039250;28;19924;-48
2021/03/11 10:06:19;;;;;;;;;;;;;;;-144.01;100.00;62166.59;5039139;28;19913;-52
2021/03/11 10:08:46;;;;;;;;;;;;;;;-144.01;100.00;62166.59;5038770;28;19921;-49
2021/03/11 10:11:12;;;;;;;;;;;;;;;-144.01;100.00;62166.59;5039057;28;19921;-48
2021/03/11 10:13:41;;;;;;;;;;;;;;;-144.01;100.00;62166.59;5039054;28;19944;-50
2021/03/11 10:16:08;;;;;;;;;;;;;;;-144.01;100.00;62166.59;5094572;28;20233;-49
2021/03/11 10:18:36;;;;;;;;;;;;;;;-144.01;100.00;62166.59;5098864;28;19912;-49
2021/03/11 10:21:07;;;;;;;;;;;;;;;-144.01;100.00;62166.59;5098995;28;19923;-48
2021/03/11 10:23:35;;;;;;;;;;;;;;;-144.01;100.00;62166.59;5098990;28;20278;-53
2021/03/11 10:26:37;;;;;;;;;;;;;;;-144.01;100.00;62166.59;5098751;28;20247;-50
2021/03/11 10:29:05;;;;;;;;;;;;;;;-144.01;100.00;62166.59;5036246;28;20427;-54
2021/03/11 10:31:32;;;;;;;;;;;;;;;-144.01;100.00;62166.59;5086887;28;20328;-47
2021/03/11 10:34:03;;;;;;;;;;;;;;;-144.01;100.00;62166.59;5098821;28;19916;-50
2021/03/11 10:36:30;;;;;;;;;;;;;;;-144.01;100.00;62166.59;5098474;28;19943;-49
2021/03/11 10:39:04;;;;;;;;;;;;;;;-144.01;100.00;62166.59;5098219;28;20225;-49
2021/03/11 10:41:32;;;;;;;;;;;;;;;-144.01;100.00;62166.59;5098792;28;19912;-48
2021/03/11 10:44:12;;;;;;;;;;;;;;;-144.01;100.00;62166.59;5098589;28;20242;-48
2021/03/11 10:46:40;;;;;;;;;;;;;;;-144.01;100.00;62166.59;5098442;28;20250;-58
2021/03/11 10:49:07;;;;;;;;;;;;;;;-144.01;100.00;62166.59;5098270;28;19912;-48
2021/03/11 10:51:34;;;;;;;;;;;;;;;-144.01;100.00;62166.59;5098448;28;19925;-52
2021/03/11 10:54:02;;;;;;;;;;;;;;;-144.01;100.00;62166.59;5098402;28;19927;-54
2021/03/11 10:56:29;;;;;;;;;;;;;;;-144.01;100.00;62166.59;5097520;28;20230;-50
2021/03/11 10:59:06;;;;;;;;;;;;;;;-144.01;100.00;62166.59;5098035;28;19916;-49
2021/03/11 11:01:33;;;;;;;;;;;;;;;-144.01;100.00;62166.59;5080470;28;19943;-49
2021/03/11 11:04:01;;;;;;;;;;;;;;;-144.01;100.00;62166.59;5098217;28;19920;-54
2021/03/11 11:06:29;;;;;;;;;;;;;;;-144.01;100.00;62166.59;5097867;28;19912;-53
2021/03/11 11:08:56;;;;;;;;;;;;;;;-144.01;100.00;62166.59;5097560;28;19912;-52
2021/03/11 11:11:23;;;;;;;;;;;;;;;-144.01;100.00;62166.59;5098185;28;19916;-54
2021/03/11 11:13:50;;;;;;;;;;;;;;;-144.01;100.00;62166.59;5098308;28;19919;-53
2021/03/11 11:16:17;;;;;;;;;;;;;;;-144.01;100.00;62166.59;5098044;28;19915;-53
2021/03/11 11:18:44;;;;;;;;;;;;;;;-144.01;100.00;62166.59;5097983;28;19912;-52
2021/03/11 11:21:11;;;;;;;;;;;;;;;-144.01;100.00;62166.59;5098095;28;19919;-49
2021/03/11 11:23:39;;;;;;;;;;;;;;;-144.01;100.00;62166.59;5098110;28;20235;-54
2021/03/11 11:26:06;;;;;;;;;;;;;;;-144.01;100.00;62166.59;5097929;28;19919;-51
2021/03/11 11:28:33;;;;;;;;;;;;;;;-144.01;100.00;62166.59;5097294;28;19921;-48
2021/03/11 11:30:59;;;;;;;;;;;;;;;-144.01;100.00;62166.59;5097426;28;19923;-49
2021/03/11 11:33:26;;;;;;;;;;;;;;;-144.01;100.00;62166.59;5098043;28;20253;-49
2021/03/11 11:35:53;;;;;;;;;;;;;;;-144.01;100.00;62166.59;5097750;28;19912;-49
2021/03/11 11:38:20;;;;;;;;;;;;;;;-144.01;100.00;62166.59;5097480;28;19912;-49
2021/03/11 11:40:48;;;;;;;;;;;;;;;-144.01;100.00;62166.59;5097561;28;19912;-50
2021/03/11 11:43:15;;;;;;;;;;;;;;;-144.01;100.00;62166.59;5097618;28;19916;-49
2021/03/11 11:45:41;;;;;;;;;;;;;;;-144.01;100.00;62166.59;5097608;28;19919;-49
2021/03/11 11:48:08;;;;;;;;;;;;;;;-144.01;100.00;62166.59;5097602;28;19919;-53
2021/03/11 11:50:35;;;;;;;;;;;;;;;-144.01;100.00;62166.59;5097336;28;19912;-56
2021/03/11 11:53:02;;;;;;;;;;;;;;;-144.01;100.00;62166.59;5096875;28;20094;-49
2021/03/11 11:55:29;;;;;;;;;;;;;;;-144.01;100.00;62166.59;5097514;28;19911;-51
2021/03/11 11:57:56;;;;;;;;;;;;;;;-144.01;100.00;62166.59;5097335;28;19926;-49
2021/03/11 12:00:23;;;;;;;;;;;;;;;-144.01;100.00;62166.59;5095024;28;19922;-51
2021/03/11 12:02:50;;;;;;;;;;;;;;;-144.01;100.00;62166.59;5076908;28;19913;-49
2021/03/11 12:05:17;;;;;;;;;;;;;;;-144.01;100.00;62166.59;5076991;28;20357;-53
2021/03/11 12:07:44;;;;;;;;;;;;;;;-144.01;100.00;62166.59;5075897;28;19916;-51
2021/03/11 12:10:11;;;;;;;;;;;;;;;-144.01;100.00;62166.59;5095591;28;19916;-53
2021/03/11 12:12:38;;;;;;;;;;;;;;;-144.01;100.00;62166.59;5097283;28;19919;-49
2021/03/11 12:15:06;;;;;;;;;;;;;;;-144.01;100.00;62166.59;5097193;28;19919;-48
2021/03/11 12:17:33;;;;;;;;;;;;;;;-144.01;100.00;62166.59;5096993;28;19916;-53
2021/03/11 12:20:00;;;;;;;;;;;;;;;-144.01;100.00;62166.59;5096801;28;19912;-55
2021/03/11 12:22:27;;;;;;;;;;;;;;;-144.01;100.00;62166.59;5096875;28;19916;-53
2021/03/11 12:24:53;;;;;;;;;;;;;;;-144.01;100.00;62166.59;5080325;28;19920;-51